Terminal Aerodrome Forecast
Issued by NWS Atlanta, GA

Home | Current Version | Previous Version | Text Only | Print | Product List | Glossary On
Versions: 1 2 3 4 5 6 7 8 9 10 11 12 13
000
FTUS42 KFFC 212337
TAFMCN
TAF
KMCN 212337Z 2200/2224 06004KT P6SM VCSH BKN050
     FM220200 VRB03KT P6SM FEW050
     FM220600 00000KT 6SM BR SKC
     FM220900 00000KT 3SM BR SKC
     FM221400 07004KT P6SM FEW040
     FM221800 09004KT P6SM VCSH SCT045=

USA.gov is the U.S. government's official web portal to all federal, state and local government web resources and services.